createdAt,value
2022-11-16T00:01:41.572Z,99278.69
2022-11-16T00:04:11.769Z,99274.38
2022-11-16T00:06:38.400Z,99273.53
2022-11-16T00:09:23.064Z,99277.84
2022-11-16T00:11:51.909Z,99267.38
2022-11-16T00:14:19.640Z,99270.91
2022-11-16T00:16:46.073Z,99263.06
2022-11-16T00:19:13.118Z,99270.00
2022-11-16T00:21:39.571Z,99264.81
2022-11-16T00:24:06.576Z,99255.25
2022-11-16T00:26:33.141Z,99262.28
2022-11-16T00:28:59.592Z,99257.97
2022-11-16T00:31:26.077Z,99255.25
2022-11-16T00:33:52.586Z,99262.28
2022-11-16T00:36:19.203Z,99259.59
2022-11-16T00:38:45.894Z,99262.28
2022-11-16T00:41:12.308Z,99256.22
2022-11-16T00:43:38.833Z,99250.13
2022-11-16T00:46:05.428Z,99244.06
2022-11-16T00:48:32.319Z,99244.91
2022-11-16T00:50:58.941Z,99234.50
2022-11-16T00:53:25.399Z,99249.28
2022-11-16T00:55:51.898Z,99244.13
2022-11-16T00:58:18.337Z,99244.97
2022-11-16T01:00:44.748Z,99244.97
2022-11-16T01:03:11.686Z,99243.28
2022-11-16T01:05:38.843Z,99243.28
2022-11-16T01:08:06.341Z,99246.75
2022-11-16T01:10:33.121Z,99238.03
2022-11-16T01:12:59.565Z,99234.50
2022-11-16T01:15:27.461Z,99244.13
2022-11-16T01:17:55.858Z,99244.13
2022-11-16T01:20:25.950Z,99236.28
2022-11-16T01:22:52.841Z,99230.19
2022-11-16T01:25:19.493Z,99228.34
2022-11-16T01:27:45.981Z,99225.78
2022-11-16T01:30:14.663Z,99230.09
2022-11-16T01:32:41.080Z,99219.69
2022-11-16T01:35:08.200Z,99217.94
2022-11-16T01:37:34.812Z,99219.69
2022-11-16T01:40:01.223Z,99219.69
2022-11-16T01:42:30.438Z,99226.72
2022-11-16T01:45:19.736Z,99228.41
2022-11-16T01:47:46.721Z,99241.59
2022-11-16T01:50:15.841Z,99247.75
2022-11-16T01:53:01.917Z,99253.84
2022-11-16T01:55:31.821Z,99248.66
2022-11-16T01:57:59.213Z,99244.34
2022-11-16T02:00:26.393Z,99245.28
2022-11-16T02:02:52.817Z,99228.69
2022-11-16T02:05:22.370Z,99242.66
2022-11-16T02:08:38.493Z,99229.56
2022-11-16T02:11:26.526Z,99228.63
2022-11-16T02:14:11.688Z,99219.09
2022-11-16T02:16:44.153Z,99219.94
2022-11-16T02:19:10.496Z,99223.44
2022-11-16T02:21:42.671Z,99218.19
2022-11-16T02:24:33.224Z,99207.72
2022-11-16T02:27:11.392Z,99202.47
2022-11-16T02:29:41.508Z,99201.63
2022-11-16T02:32:16.876Z,99209.50
2022-11-16T02:34:55.603Z,99201.72
2022-11-16T02:37:24.637Z,99208.72
2022-11-16T02:39:56.148Z,99213.97
2022-11-16T02:42:28.638Z,99204.31
2022-11-16T02:44:58.007Z,99196.53
2022-11-16T02:47:29.372Z,99198.25
2022-11-16T02:50:01.867Z,99179.13
2022-11-16T02:52:28.991Z,99176.59
2022-11-16T02:54:55.771Z,99188.84
2022-11-16T02:57:40.107Z,99174.81
2022-11-16T03:00:10.181Z,99164.41
2022-11-16T03:02:43.834Z,99166.19
2022-11-16T03:05:34.404Z,99167.97
2022-11-16T03:08:17.383Z,99175.81
2022-11-16T03:11:06.025Z,99160.16
2022-11-16T03:13:35.695Z,99167.16
2022-11-16T03:16:09.849Z,99161.06
2022-11-16T03:18:38.570Z,99163.69
2022-11-16T03:21:10.498Z,99165.47
2022-11-16T03:23:37.492Z,99160.28
2022-11-16T03:26:08.015Z,99166.38
2022-11-16T03:28:46.810Z,99171.63
2022-11-16T03:31:37.601Z,99177.78
2022-11-16T03:34:09.729Z,99179.56
2022-11-16T03:36:41.672Z,99176.94
2022-11-16T03:39:18.930Z,99180.41
2022-11-16T03:41:47.684Z,99178.72
2022-11-16T03:44:16.798Z,99190.88
2022-11-16T03:46:45.294Z,99197.81
2022-11-16T03:49:11.986Z,99204.81
2022-11-16T03:51:38.739Z,99201.34
2022-11-16T03:54:05.719Z,99207.44
2022-11-16T03:56:32.373Z,99205.75
2022-11-16T03:58:58.782Z,99205.81
2022-11-16T04:01:25.246Z,99216.31
2022-11-16T04:03:51.800Z,99199.75
2022-11-16T04:06:37.128Z,99198.88
2022-11-16T04:09:22.648Z,99205.81
2022-11-16T04:12:07.901Z,99209.38
2022-11-16T04:14:53.397Z,99209.28
2022-11-16T04:17:41.787Z,99205.91
2022-11-16T04:20:29.539Z,99211.06
2022-11-16T04:23:22.874Z,99218.91
2022-11-16T04:25:51.761Z,99225.97
2022-11-16T04:28:22.726Z,99227.75
2022-11-16T04:31:10.799Z,99232.09
2022-11-16T04:33:56.112Z,99232.09
2022-11-16T04:36:41.594Z,99234.75
2022-11-16T04:39:08.299Z,99233.91
2022-11-16T04:41:54.554Z,99233.06
2022-11-16T04:44:22.851Z,99237.38
2022-11-16T04:47:07.540Z,99233.13
2022-11-16T04:49:34.453Z,99239.28
2022-11-16T04:52:00.916Z,99234.06
2022-11-16T04:54:27.384Z,99241.91
2022-11-16T04:56:53.857Z,99240.13
2022-11-16T04:59:20.257Z,99236.66
2022-11-16T05:02:05.183Z,99238.44
2022-11-16T05:04:31.591Z,99242.81
2022-11-16T05:06:58.073Z,99242.81
2022-11-16T05:09:24.750Z,99234.97
2022-11-16T05:11:51.370Z,99243.69
2022-11-16T05:14:17.815Z,99245.38
2022-11-16T05:16:44.210Z,99240.22
2022-11-16T05:19:29.309Z,99246.28
2022-11-16T05:21:55.740Z,99251.59
2022-11-16T05:24:34.279Z,99258.63
2022-11-16T05:27:09.494Z,99257.75
2022-11-16T05:29:36.470Z,99253.41
2022-11-16T05:32:04.242Z,99265.63
2022-11-16T05:34:30.921Z,99263.88
2022-11-16T05:36:58.119Z,99262.19
2022-11-16T05:39:24.977Z,99252.63
2022-11-16T05:41:52.931Z,99256.19
2022-11-16T05:44:19.890Z,99258.81
2022-11-16T05:46:46.914Z,99263.19
2022-11-16T05:49:13.862Z,99264.97
2022-11-16T05:51:41.871Z,99264.97
2022-11-16T05:54:11.045Z,99267.56
2022-11-16T05:56:37.601Z,99276.34
2022-11-16T05:59:04.077Z,99275.50
2022-11-16T06:01:30.722Z,99279.03
2022-11-16T06:04:00.341Z,99286.06
2022-11-16T06:06:27.923Z,99292.22
2022-11-16T06:08:54.810Z,99278.19
2022-11-16T06:11:21.602Z,99274.84
2022-11-16T06:13:48.010Z,99278.44
2022-11-16T06:16:14.474Z,99281.13
2022-11-16T06:18:43.048Z,99298.69
2022-11-16T06:21:10.734Z,99300.50
2022-11-16T06:23:37.674Z,99295.41
2022-11-16T06:26:05.472Z,99292.94
2022-11-16T06:28:32.786Z,99289.50
2022-11-16T06:30:59.640Z,99305.41
2022-11-16T06:33:28.578Z,99305.53
2022-11-16T06:35:58.790Z,99309.13
2022-11-16T06:38:25.383Z,99305.88
2022-11-16T06:40:53.562Z,99320.72
2022-11-16T06:43:20.828Z,99320.75
2022-11-16T06:45:52.286Z,99329.59
2022-11-16T06:48:19.849Z,99331.44
2022-11-16T06:50:50.774Z,99328.94
2022-11-16T06:53:18.173Z,99329.84
2022-11-16T06:55:44.751Z,99351.69
2022-11-16T06:58:11.220Z,99352.81
2022-11-16T07:00:37.696Z,99353.75
2022-11-16T07:03:04.655Z,99359.13
2022-11-16T07:05:31.880Z,99365.34
2022-11-16T07:07:58.627Z,99359.28
2022-11-16T07:10:26.289Z,99355.78
2022-11-16T07:12:52.747Z,99361.16
2022-11-16T07:15:19.993Z,99349.13
2022-11-16T07:17:46.857Z,99352.63
2022-11-16T07:20:13.768Z,99356.97
2022-11-16T07:22:40.432Z,99365.69
2022-11-16T07:25:07.655Z,99367.47
2022-11-16T07:27:34.110Z,99370.94
2022-11-16T07:30:02.039Z,99371.06
2022-11-16T07:32:30.982Z,99375.44
2022-11-16T07:34:59.357Z,99389.56
2022-11-16T07:37:26.326Z,99390.34
2022-11-16T07:39:52.915Z,99390.44
2022-11-16T07:42:19.359Z,99407.00
2022-11-16T07:44:45.834Z,99405.41
2022-11-16T07:47:12.219Z,99407.16
2022-11-16T07:49:38.659Z,99406.31
2022-11-16T07:52:05.100Z,99408.81
2022-11-16T07:54:31.517Z,99407.97
2022-11-16T07:56:57.982Z,99405.47
2022-11-16T07:59:24.373Z,99401.94
2022-11-16T08:01:50.960Z,99405.53
2022-11-16T08:04:17.579Z,99413.38
2022-11-16T08:06:44.662Z,99415.09
2022-11-16T08:09:11.125Z,99410.81
2022-11-16T08:11:38.003Z,99407.38
2022-11-16T08:14:04.570Z,99408.16
2022-11-16T08:16:33.214Z,99415.25
2022-11-16T08:19:00.984Z,99415.16
2022-11-16T08:21:27.415Z,99410.13
2022-11-16T08:23:58.077Z,99424.00
2022-11-16T08:26:25.279Z,99433.59
2022-11-16T08:28:53.696Z,99432.69
2022-11-16T08:31:22.309Z,99433.72
2022-11-16T08:33:48.747Z,99437.25
2022-11-16T08:36:18.704Z,99434.72
2022-11-16T08:38:46.964Z,99434.66
2022-11-16T08:41:14.235Z,99445.03
2022-11-16T08:43:41.159Z,99452.81
2022-11-16T08:46:09.368Z,99451.25
2022-11-16T08:48:37.432Z,99457.34
2022-11-16T08:51:16.901Z,99456.56
2022-11-16T08:53:44.251Z,99457.41
2022-11-16T08:56:13.228Z,99462.63
2022-11-16T08:58:42.386Z,99469.63
2022-11-16T09:01:20.214Z,99466.94
2022-11-16T09:03:46.856Z,99471.25
2022-11-16T09:06:14.024Z,99475.63
2022-11-16T09:08:42.585Z,99483.41
2022-11-16T09:11:18.382Z,99482.28
2022-11-16T09:13:46.552Z,99482.03
2022-11-16T09:16:16.662Z,99479.25
2022-11-16T09:18:47.066Z,99487.03
2022-11-16T09:21:23.959Z,99479.75
2022-11-16T09:23:51.398Z,99471.19
2022-11-16T09:26:21.177Z,99477.16
2022-11-16T09:28:48.149Z,99484.91
2022-11-16T09:31:17.649Z,99476.84
2022-11-16T09:33:48.665Z,99485.72
2022-11-16T09:36:15.755Z,99487.53
2022-11-16T09:39:14.344Z,99483.19
2022-11-16T09:42:15.443Z,99492.66
2022-11-16T09:44:55.835Z,99493.25
2022-11-16T09:47:26.243Z,99475.75
2022-11-16T09:49:59.805Z,99481.72
2022-11-16T09:52:45.661Z,99478.19
2022-11-16T09:55:34.843Z,99488.56
2022-11-16T09:58:07.680Z,99488.56
2022-11-16T10:00:36.084Z,99495.50
2022-11-16T10:03:10.928Z,99485.06
2022-11-16T10:06:02.715Z,99484.13
2022-11-16T10:08:51.234Z,99485.81
2022-11-16T10:11:43.692Z,99485.06
2022-11-16T10:14:22.238Z,99486.16
2022-11-16T10:17:06.690Z,99480.25
2022-11-16T10:19:52.364Z,99489.97
2022-11-16T10:22:40.279Z,99489.28
2022-11-16T10:25:35.966Z,99485.00
2022-11-16T10:28:34.900Z,99480.75
2022-11-16T10:31:15.791Z,99482.50
2022-11-16T10:33:46.152Z,99478.06
2022-11-16T10:36:14.874Z,99466.81
2022-11-16T10:38:43.202Z,99469.25
2022-11-16T10:41:22.446Z,99464.78
2022-11-16T10:43:49.544Z,99449.75
2022-11-16T10:46:33.877Z,99456.59
2022-11-16T10:49:00.332Z,99451.09
2022-11-16T10:51:26.853Z,99447.47
2022-11-16T10:53:54.168Z,99451.66
2022-11-16T10:56:37.374Z,99447.41
2022-11-16T10:59:05.196Z,99445.66
2022-11-16T11:01:38.960Z,99444.44
2022-11-16T11:04:19.523Z,99432.97
2022-11-16T11:06:47.962Z,99438.78
2022-11-16T11:09:20.094Z,99432.44
2022-11-16T11:12:17.209Z,99437.44
2022-11-16T11:15:13.401Z,99442.00
2022-11-16T11:17:45.190Z,99432.50
2022-11-16T11:20:17.852Z,99427.28
2022-11-16T11:23:02.301Z,99429.91
2022-11-16T11:25:35.452Z,99428.84
2022-11-16T11:28:27.689Z,99426.16
2022-11-16T11:31:11.665Z,99419.84
2022-11-16T11:33:43.996Z,99419.84
2022-11-16T11:36:20.436Z,99421.22
2022-11-16T11:39:07.253Z,99405.25
2022-11-16T11:41:36.855Z,99404.34
2022-11-16T11:44:14.945Z,99394.78
2022-11-16T11:47:35.276Z,99397.19
2022-11-16T11:49:39.501Z,99389.47
2022-11-16T11:52:21.291Z,99384.00
2022-11-16T11:54:50.254Z,99378.94
2022-11-16T11:57:22.043Z,99375.38
2022-11-16T11:59:52.293Z,99381.22
2022-11-16T12:02:47.718Z,99380.78
2022-11-16T12:05:14.137Z,99378.47
2022-11-16T12:08:14.619Z,99371.78
2022-11-16T12:10:40.971Z,99382.78
2022-11-16T12:13:26.261Z,99368.97
2022-11-16T12:16:13.877Z,99375.03
2022-11-16T12:18:51.774Z,99369.91
2022-11-16T12:21:34.379Z,99361.09
2022-11-16T12:24:03.847Z,99363.81
2022-11-16T12:26:39.154Z,99357.47
2022-11-16T12:29:20.866Z,99356.06
2022-11-16T12:32:19.742Z,99346.94
2022-11-16T12:34:49.207Z,99349.72
2022-11-16T12:37:28.059Z,99349.34
2022-11-16T12:40:16.514Z,99345.41
2022-11-16T12:42:49.055Z,99342.94
2022-11-16T12:45:42.793Z,99342.94
2022-11-16T12:48:21.900Z,99343.69
2022-11-16T12:51:07.048Z,99326.81
2022-11-16T12:54:04.697Z,99334.56
2022-11-16T12:56:49.052Z,99334.19
2022-11-16T12:59:25.006Z,99335.75
2022-11-16T13:02:29.161Z,99335.94
2022-11-16T13:05:03.764Z,99328.06
2022-11-16T13:07:41.235Z,99325.34
2022-11-16T13:10:30.786Z,99321.31
2022-11-16T13:13:29.575Z,99316.66
2022-11-16T13:15:48.284Z,99321.69
2022-11-16T13:18:18.308Z,99304.16
2022-11-16T13:20:47.658Z,99295.97
2022-11-16T13:23:33.450Z,99298.34
2022-11-16T13:26:29.131Z,99293.50
2022-11-16T13:29:13.400Z,99303.69
2022-11-16T13:31:51.529Z,99301.63
2022-11-16T13:34:26.128Z,99288.88
2022-11-16T13:36:52.726Z,99286.28
2022-11-16T13:39:22.907Z,99280.53
2022-11-16T13:42:07.564Z,99291.78
2022-11-16T13:44:34.681Z,99276.56
2022-11-16T13:47:04.763Z,99283.16
2022-11-16T13:49:34.422Z,99283.91
2022-11-16T13:52:22.711Z,99285.44
2022-11-16T13:54:53.672Z,99275.66
2022-11-16T13:57:32.881Z,99273.09
2022-11-16T14:00:02.026Z,99270.84
2022-11-16T14:02:35.004Z,99271.50
2022-11-16T14:05:15.992Z,99271.19
2022-11-16T14:07:47.106Z,99271.47
2022-11-16T14:10:33.475Z,99268.53
2022-11-16T14:13:01.094Z,99272.19
2022-11-16T14:15:33.721Z,99267.06
2022-11-16T14:18:07.616Z,99263.19
2022-11-16T14:20:52.301Z,99265.03
2022-11-16T14:23:22.377Z,99267.59
2022-11-16T14:26:27.513Z,99269.75
2022-11-16T14:29:31.321Z,99263.91
2022-11-16T14:32:01.010Z,99262.19
2022-11-16T14:34:39.319Z,99260.13
2022-11-16T14:37:05.998Z,99267.59
2022-11-16T14:39:41.414Z,99269.56
2022-11-16T14:42:18.214Z,99264.69
2022-11-16T14:44:45.024Z,99264.88
2022-11-16T14:47:29.181Z,99266.81
2022-11-16T14:49:57.476Z,99266.16
2022-11-16T14:52:39.743Z,99260.22
2022-11-16T14:55:09.395Z,99260.28
2022-11-16T14:57:35.956Z,99263.19
2022-11-16T15:00:18.807Z,99252.66
2022-11-16T15:02:51.510Z,99254.50
2022-11-16T15:05:23.636Z,99245.28
2022-11-16T15:07:52.873Z,99244.84
2022-11-16T15:10:26.180Z,99241.78
2022-11-16T15:12:54.938Z,99236.09
2022-11-16T15:15:27.721Z,99229.94
2022-11-16T15:18:00.148Z,99224.09
2022-11-16T15:20:29.117Z,99238.38
2022-11-16T15:22:58.513Z,99237.69
2022-11-16T15:25:24.958Z,99235.09
2022-11-16T15:27:52.350Z,99234.19
2022-11-16T15:30:22.222Z,99234.13
2022-11-16T15:32:50.520Z,99228.22
2022-11-16T15:35:23.008Z,99238.91
2022-11-16T15:38:20.606Z,99224.25
2022-11-16T15:40:50.785Z,99230.47
2022-11-16T15:43:18.746Z,99230.66
2022-11-16T15:45:46.527Z,99227.41
2022-11-16T15:48:20.639Z,99211.91
2022-11-16T15:51:13.642Z,99208.66
2022-11-16T15:53:48.131Z,99212.38
2022-11-16T15:56:26.767Z,99210.75
2022-11-16T15:58:59.076Z,99210.91
2022-11-16T16:01:25.980Z,99206.69
2022-11-16T16:04:05.053Z,99207.72
2022-11-16T16:06:46.782Z,99191.31
2022-11-16T16:09:34.865Z,99182.75
2022-11-16T16:12:26.228Z,99189.84
2022-11-16T16:14:52.777Z,99185.63
2022-11-16T16:17:28.148Z,99190.84
2022-11-16T16:20:19.976Z,99171.75
2022-11-16T16:22:46.549Z,99183.25
2022-11-16T16:25:28.429Z,99178.97
2022-11-16T16:27:54.928Z,99183.50
2022-11-16T16:30:21.522Z,99181.91
2022-11-16T16:32:49.910Z,99180.28
2022-11-16T16:35:25.433Z,99179.50
2022-11-16T16:37:58.072Z,99177.00
2022-11-16T16:40:26.102Z,99170.13
2022-11-16T16:42:53.300Z,99164.31
2022-11-16T16:45:25.697Z,99157.31
2022-11-16T16:47:52.104Z,99161.56
2022-11-16T16:50:18.534Z,99159.94
2022-11-16T16:52:45.630Z,99166.84
2022-11-16T16:55:12.093Z,99164.31
2022-11-16T16:57:38.549Z,99166.31
2022-11-16T17:00:05.406Z,99155.88
2022-11-16T17:02:31.836Z,99159.38
2022-11-16T17:04:58.385Z,99152.47
2022-11-16T17:07:25.178Z,99142.00
2022-11-16T17:09:51.668Z,99143.78
2022-11-16T17:12:18.094Z,99148.00
2022-11-16T17:14:51.271Z,99155.81
2022-11-16T17:17:24.474Z,99154.09
2022-11-16T17:19:51.302Z,99151.47
2022-11-16T17:22:19.089Z,99152.41
2022-11-16T17:24:45.648Z,99150.69
2022-11-16T17:27:12.477Z,99150.84
2022-11-16T17:29:38.959Z,99153.53
2022-11-16T17:32:05.869Z,99145.72
2022-11-16T17:34:32.396Z,99146.59
2022-11-16T17:36:58.868Z,99137.94
2022-11-16T17:39:25.258Z,99131.94
2022-11-16T17:41:51.811Z,99129.41
2022-11-16T17:44:21.852Z,99122.53
2022-11-16T17:46:48.606Z,99124.31
2022-11-16T17:49:15.251Z,99125.25
2022-11-16T17:51:41.758Z,99126.25
2022-11-16T17:54:08.182Z,99128.06
2022-11-16T17:56:34.634Z,99121.25
2022-11-16T17:59:01.102Z,99117.69
2022-11-16T18:01:28.435Z,99113.41
2022-11-16T18:03:55.144Z,99115.13
2022-11-16T18:06:23.910Z,99102.13
2022-11-16T18:08:51.119Z,99094.28
2022-11-16T18:11:23.068Z,99099.63
2022-11-16T18:13:57.645Z,99099.72
2022-11-16T18:16:27.260Z,99091.06
2022-11-16T18:19:03.163Z,99092.97
2022-11-16T18:21:30.081Z,99089.56
2022-11-16T18:23:59.147Z,99086.03
2022-11-16T18:26:25.710Z,99083.50
2022-11-16T18:28:53.107Z,99092.19
2022-11-16T18:31:21.839Z,99096.50
2022-11-16T18:33:49.286Z,99090.41
2022-11-16T18:36:16.997Z,99093.88
2022-11-16T18:38:43.640Z,99087.03
2022-11-16T18:41:13.049Z,99086.13
2022-11-16T18:43:49.177Z,99084.53
2022-11-16T18:46:16.123Z,99086.41
2022-11-16T18:48:43.352Z,99099.47
2022-11-16T18:51:11.125Z,99097.84
2022-11-16T18:53:38.039Z,99105.69
2022-11-16T18:56:05.155Z,99101.25
2022-11-16T19:01:22.210Z,99102.94
2022-11-16T19:03:48.882Z,99104.63
2022-11-16T19:06:17.435Z,99092.50
2022-11-16T19:08:44.143Z,99090.78
2022-11-16T19:11:15.054Z,99082.75
2022-11-16T19:13:43.394Z,99082.75
2022-11-16T19:16:11.823Z,99079.22
2022-11-16T19:18:38.509Z,99067.94
2022-11-16T19:21:07.414Z,99067.94
2022-11-16T19:23:48.370Z,99074.00
2022-11-16T19:26:16.876Z,99072.19
2022-11-16T19:28:46.314Z,99070.38
2022-11-16T19:31:24.457Z,99066.69
2022-11-16T19:33:55.891Z,99058.81
2022-11-16T19:36:23.130Z,99049.22
2022-11-16T19:38:49.846Z,99055.16
2022-11-16T19:41:17.708Z,99053.31
2022-11-16T19:43:44.219Z,99055.75
2022-11-16T19:46:13.438Z,99047.53
2022-11-16T19:48:39.838Z,99038.00
2022-11-16T19:51:08.497Z,99029.22
2022-11-16T19:53:36.232Z,99025.78
2022-11-16T19:56:03.719Z,99030.16
2022-11-16T19:58:31.931Z,99029.31
2022-11-16T20:01:07.130Z,99021.31
2022-11-16T20:03:34.360Z,99026.47
2022-11-16T20:06:10.038Z,99020.47
2022-11-16T20:08:38.640Z,99024.72
2022-11-16T20:11:20.489Z,99009.94
2022-11-16T20:13:47.939Z,99003.81
2022-11-16T20:16:15.285Z,99005.25
2022-11-16T20:18:42.787Z,98994.00
2022-11-16T20:21:16.433Z,98989.63
2022-11-16T20:23:44.563Z,98986.03
2022-11-16T20:26:12.295Z,98972.88
2022-11-16T20:28:40.799Z,98965.88
2022-11-16T20:31:11.200Z,98971.09
2022-11-16T20:33:38.051Z,98968.38
2022-11-16T20:36:08.077Z,98964.13
2022-11-16T20:38:35.786Z,98956.22
2022-11-16T20:41:14.162Z,98951.00
2022-11-16T20:43:42.143Z,98963.91
2022-11-16T20:46:11.666Z,98949.94
2022-11-16T20:48:39.461Z,98953.28
2022-11-16T20:51:07.041Z,98945.47
2022-11-16T20:53:34.180Z,98950.69
2022-11-16T20:56:04.723Z,98941.09
2022-11-16T20:58:32.501Z,98935.66
2022-11-16T21:01:06.637Z,98942.53
2022-11-16T21:03:33.699Z,98934.59
2022-11-16T21:06:01.056Z,98928.47
2022-11-16T21:08:29.541Z,98924.13
2022-11-16T21:10:56.467Z,98922.31
2022-11-16T21:13:42.081Z,98917.88
2022-11-16T21:16:13.689Z,98910.03
2022-11-16T21:18:40.212Z,98912.47
2022-11-16T21:21:09.325Z,98898.47
2022-11-16T21:23:36.493Z,98899.47
2022-11-16T21:26:05.078Z,98900.41
2022-11-16T21:28:31.637Z,98890.59
2022-11-16T21:31:03.355Z,98886.22
2022-11-16T21:33:29.996Z,98888.88
2022-11-16T21:35:56.657Z,98882.59
2022-11-16T21:38:25.488Z,98861.59
2022-11-16T21:40:51.945Z,98863.56
2022-11-16T21:43:18.584Z,98859.13
2022-11-16T21:45:47.459Z,98851.81
2022-11-16T21:48:14.350Z,98843.28
2022-11-16T21:50:41.185Z,98844.94
2022-11-16T21:53:08.620Z,98837.03
2022-11-16T21:55:35.353Z,98822.19
2022-11-16T21:58:05.692Z,98812.69
2022-11-16T22:00:32.183Z,98815.31
2022-11-16T22:02:58.751Z,98818.84
2022-11-16T22:05:43.761Z,98815.44
2022-11-16T22:08:11.709Z,98812.63
2022-11-16T22:10:38.143Z,98799.53
2022-11-16T22:13:04.542Z,98795.44
2022-11-16T22:15:31.026Z,98796.28
2022-11-16T22:17:57.436Z,98782.44
2022-11-16T22:20:23.849Z,98794.41
2022-11-16T22:22:50.316Z,98781.94
2022-11-16T22:25:17.102Z,98769.63
2022-11-16T22:28:18.689Z,98770.66
2022-11-16T22:30:33.539Z,98775.72
2022-11-16T22:32:59.951Z,98767.78
2022-11-16T22:35:26.368Z,98764.19
2022-11-16T22:37:52.874Z,98762.94
2022-11-16T22:40:19.311Z,98751.63
2022-11-16T22:42:46.039Z,98748.25
2022-11-16T22:45:12.451Z,98742.34
2022-11-16T22:47:38.834Z,98732.72
2022-11-16T22:50:05.669Z,98726.78
2022-11-16T22:52:32.123Z,98723.41
2022-11-16T22:54:58.541Z,98720.88
2022-11-16T22:57:24.987Z,98708.72
2022-11-16T22:59:51.477Z,98705.34
2022-11-16T23:02:17.932Z,98699.31
2022-11-16T23:04:44.386Z,98694.16
2022-11-16T23:07:10.822Z,98690.84
2022-11-16T23:09:37.334Z,98690.97
2022-11-16T23:12:22.391Z,98677.13
2022-11-16T23:15:07.229Z,98673.75
2022-11-16T23:35:16.986Z,98639.22
2022-11-16T23:37:53.440Z,98630.63
2022-11-16T23:40:21.882Z,98621.00
2022-11-16T23:43:06.871Z,98616.63
2022-11-16T23:45:33.501Z,98600.84
2022-11-16T23:47:59.986Z,98595.63
2022-11-16T23:50:26.486Z,98587.88
2022-11-16T23:52:52.922Z,98575.63
2022-11-16T23:55:19.435Z,98581.72
2022-11-16T23:57:45.852Z,98565.19
